createdAt,value
2018-01-04T00:00:46.445Z,926.4
2018-01-04T00:01:49.894Z,926.3
2018-01-04T00:02:54.128Z,926.5
2018-01-04T00:03:59.521Z,926.3
2018-01-04T00:05:03.602Z,926.5
2018-01-04T00:06:06.936Z,926.4
2018-01-04T00:07:10.450Z,926.2
2018-01-04T00:08:14.477Z,926.4
2018-01-04T00:09:23.631Z,926.5
2018-01-04T00:10:27.021Z,926.5
2018-01-04T00:11:36.061Z,926.4
2018-01-04T00:12:40.281Z,926.4
2018-01-04T00:13:49.071Z,926.3
2018-01-04T00:14:52.418Z,926.3
2018-01-04T00:15:57.151Z,926.3
2018-01-04T00:17:00.992Z,926.4
2018-01-04T00:18:05.938Z,926.3
2018-01-04T00:19:09.372Z,926.3
2018-01-04T00:20:16.980Z,926.3
2018-01-04T00:21:20.321Z,926.3
2018-01-04T00:22:23.690Z,926.4
2018-01-04T00:23:27.213Z,926.4
2018-01-04T00:24:31.043Z,926.3
2018-01-04T00:25:34.396Z,926.3
2018-01-04T00:26:37.937Z,926.3
2018-01-04T00:27:46.909Z,926.4
2018-01-04T00:28:51.081Z,926.2
2018-01-04T00:29:59.997Z,926.3
2018-01-04T00:31:05.837Z,926.3
2018-01-04T00:32:09.248Z,926.3
2018-01-04T00:33:12.621Z,926.3
2018-01-04T00:34:16.154Z,926.3
2018-01-04T00:35:20.198Z,926.3
2018-01-04T00:36:23.652Z,926.4
2018-01-04T00:37:27.637Z,926.3
2018-01-04T00:38:30.977Z,926.4
2018-01-04T00:39:34.840Z,926.3
2018-01-04T00:40:39.389Z,926.3
2018-01-04T00:41:53.963Z,926.3
2018-01-04T00:43:02.924Z,926.4
2018-01-04T00:44:06.316Z,926.3
2018-01-04T00:45:11.676Z,926.4
2018-01-04T00:46:15.067Z,926.4
2018-01-04T00:47:18.329Z,926.4
2018-01-04T00:48:28.488Z,926.3
2018-01-04T00:49:31.808Z,926.4
2018-01-04T00:50:36.456Z,926.4
2018-01-04T00:51:40.550Z,926.4
2018-01-04T00:52:48.055Z,926.3
2018-01-04T00:53:51.600Z,926.3
2018-01-04T00:54:55.540Z,926.3
2018-01-04T00:55:59.609Z,926.3
2018-01-04T00:57:03.911Z,926.2
2018-01-04T00:58:08.424Z,926.5
2018-01-04T00:59:11.925Z,926.5
2018-01-04T01:00:15.294Z,926.3
2018-01-04T01:01:18.765Z,926.4
2018-01-04T01:02:23.434Z,926.3
2018-01-04T01:03:31.196Z,926.3
2018-01-04T01:04:35.101Z,926.4
2018-01-04T01:05:40.580Z,926.4
2018-01-04T01:06:44.016Z,926.4
2018-01-04T01:07:47.355Z,926.5
2018-01-04T01:08:50.657Z,926.5
2018-01-04T01:09:54.905Z,926.3
2018-01-04T01:10:58.311Z,926.3
2018-01-04T01:12:02.612Z,926.2
2018-01-04T01:13:06.011Z,926.2
2018-01-04T01:14:14.474Z,926.2
2018-01-04T01:15:18.286Z,926.3
2018-01-04T01:16:23.496Z,926.4
2018-01-04T01:17:26.988Z,926.1
2018-01-04T01:18:31.630Z,926.3
2018-01-04T01:19:36.002Z,926.2
2018-01-04T01:20:39.181Z,926.2
2018-01-04T01:21:42.580Z,926.2
2018-01-04T01:22:47.222Z,926.2
2018-01-04T01:23:51.663Z,926.1
2018-01-04T01:24:58.317Z,926.2
2018-01-04T01:26:02.330Z,926.2
2018-01-04T01:27:06.593Z,926.2
2018-01-04T01:28:09.818Z,926.3
2018-01-04T01:29:12.985Z,926.4
2018-01-04T01:30:16.308Z,926.2
2018-01-04T01:31:19.677Z,926.1
2018-01-04T01:32:23.077Z,926.3
2018-01-04T01:33:26.399Z,926.3
2018-01-04T01:34:29.725Z,926.4
2018-01-04T01:35:36.699Z,926.3
2018-01-04T01:36:40.025Z,926.2
2018-01-04T01:37:43.407Z,926.3
2018-01-04T01:38:46.863Z,926.2
2018-01-04T01:39:50.258Z,926.2
2018-01-04T01:40:54.260Z,926.2
2018-01-04T01:41:57.669Z,926.2
2018-01-04T01:43:01.047Z,926.2
2018-01-04T01:44:08.184Z,926.2
2018-01-04T01:45:11.633Z,926.1
2018-01-04T01:46:18.421Z,926.2
2018-01-04T01:47:22.359Z,926.3
2018-01-04T01:48:26.557Z,926.3
2018-01-04T01:49:29.871Z,926.2
2018-01-04T01:50:44.442Z,926.3
2018-01-04T01:51:47.867Z,926.3
2018-01-04T01:52:56.892Z,926.3
2018-01-04T01:54:05.886Z,926.2
2018-01-04T01:55:09.964Z,926.3
2018-01-04T01:56:13.854Z,926.3
2018-01-04T01:57:20.748Z,926.4
2018-01-04T01:58:24.262Z,926.4
2018-01-04T01:59:27.606Z,926.4
2018-01-04T02:00:31.087Z,926.3
2018-01-04T02:01:34.500Z,926.3
2018-01-04T02:02:44.096Z,926.4
2018-01-04T02:05:02.509Z,926.3
2018-01-04T02:06:11.452Z,926.3
2018-01-04T02:07:16.394Z,926.2
2018-01-04T02:08:24.405Z,926.2
2018-01-04T02:09:28.343Z,926.2
2018-01-04T02:10:31.706Z,926.3
2018-01-04T02:11:35.043Z,926.3
2018-01-04T02:12:39.104Z,926.5
2018-01-04T02:13:42.556Z,926.4
2018-01-04T02:14:45.925Z,926.5
2018-01-04T02:15:49.241Z,926.3
2018-01-04T02:16:53.471Z,926.4
2018-01-04T02:17:57.253Z,926.4
2018-01-04T02:19:04.254Z,926.4
2018-01-04T02:20:07.710Z,926.4
2018-01-04T02:21:12.779Z,926.3
2018-01-04T02:22:16.635Z,926.2
2018-01-04T02:23:19.950Z,926.2
2018-01-04T02:24:23.875Z,926.3
2018-01-04T02:25:28.028Z,926.2
2018-01-04T02:26:31.962Z,926.2
2018-01-04T02:27:35.149Z,926.4
2018-01-04T02:28:39.503Z,926.4
2018-01-04T02:29:46.722Z,926.3
2018-01-04T02:30:50.011Z,926.3
2018-01-04T02:31:53.467Z,926.2
2018-01-04T02:32:57.373Z,926.2
2018-01-04T02:34:00.782Z,926.2
2018-01-04T02:35:05.178Z,926.2
2018-01-04T02:36:08.687Z,926.2
2018-01-04T02:37:12.016Z,926.3
2018-01-04T02:38:15.251Z,926.2
2018-01-04T02:39:18.527Z,926.2
2018-01-04T02:40:26.094Z,926.3
2018-01-04T02:41:30.181Z,926.1
2018-01-04T02:42:33.420Z,926.1
2018-01-04T02:43:36.814Z,926.2
2018-01-04T02:44:50.732Z,926.1
2018-01-04T02:45:55.353Z,926.1
2018-01-04T02:46:58.748Z,926.2
2018-01-04T02:48:04.028Z,926
2018-01-04T02:49:09.860Z,926.2
2018-01-04T02:50:13.792Z,926
2018-01-04T02:51:20.648Z,926.1
2018-01-04T02:52:24.826Z,925.9
2018-01-04T02:53:28.757Z,926
2018-01-04T02:54:32.727Z,925.9
2018-01-04T02:55:36.802Z,925.9
2018-01-04T02:56:40.363Z,925.9
2018-01-04T02:57:44.243Z,925.9
2018-01-04T02:58:48.223Z,925.8
2018-01-04T02:59:51.609Z,926
2018-01-04T03:00:55.738Z,926
2018-01-04T03:02:09.595Z,925.8
2018-01-04T03:04:21.721Z,925.9
2018-01-04T03:05:25.305Z,926
2018-01-04T03:06:30.592Z,925.5
2018-01-04T03:07:34.002Z,925.9
2018-01-04T03:08:37.492Z,926
2018-01-04T03:09:40.586Z,925.8
2018-01-04T03:10:54.959Z,925.9
2018-01-04T03:11:58.287Z,925.8
2018-01-04T03:13:05.612Z,925.8
2018-01-04T03:14:08.905Z,925.9
2018-01-04T03:15:12.300Z,925.8
2018-01-04T03:16:16.320Z,925.8
2018-01-04T03:17:21.139Z,922
2018-01-04T03:18:24.533Z,925.8
2018-01-04T03:19:28.313Z,925.8
2018-01-04T03:20:31.680Z,925.7
2018-01-04T03:21:34.981Z,925.8
2018-01-04T03:22:38.423Z,925.8
2018-01-04T03:23:45.263Z,925.8
2018-01-04T03:24:48.555Z,925.7
2018-01-04T03:25:51.822Z,925.7
2018-01-04T03:26:55.121Z,925.8
2018-01-04T03:27:58.466Z,925.7
2018-01-04T03:29:01.916Z,925.5
2018-01-04T03:30:07.631Z,925.5
2018-01-04T03:31:11.099Z,925.6
2018-01-04T03:32:14.420Z,925.5
2018-01-04T03:33:18.566Z,925.6
2018-01-04T03:34:25.431Z,925.6
2018-01-04T03:35:29.721Z,925.6
2018-01-04T03:36:33.457Z,925.6
2018-01-04T03:37:37.395Z,925.7
2018-01-04T03:38:40.772Z,925.6
2018-01-04T03:39:44.194Z,925.8
2018-01-04T03:40:47.529Z,925.6
2018-01-04T03:41:50.856Z,925.7
2018-01-04T03:42:54.222Z,925.8
2018-01-04T03:43:57.534Z,925.8
2018-01-04T03:45:03.512Z,925.7
2018-01-04T03:46:06.900Z,925.7
2018-01-04T03:47:12.480Z,925.8
2018-01-04T03:48:15.819Z,925.8
2018-01-04T03:49:19.130Z,925.9
2018-01-04T03:50:22.425Z,925.9
2018-01-04T03:51:26.535Z,925.8
2018-01-04T03:52:29.918Z,925.7
2018-01-04T03:53:33.203Z,925.7
2018-01-04T03:54:37.158Z,925.9
2018-01-04T03:55:43.001Z,925.9
2018-01-04T03:56:46.503Z,926
2018-01-04T03:57:50.570Z,926.1
2018-01-04T03:58:54.076Z,926.1
2018-01-04T03:59:57.370Z,926
2018-01-04T04:01:01.434Z,926.1
2018-01-04T04:02:04.744Z,926.1
2018-01-04T04:03:08.171Z,926.1
2018-01-04T04:04:12.167Z,926.1
2018-01-04T04:05:15.485Z,926.2
2018-01-04T04:06:22.926Z,926.1
2018-01-04T04:07:26.729Z,926
2018-01-04T04:08:30.069Z,926
2018-01-04T04:09:33.404Z,926
2018-01-04T04:10:36.702Z,926
2018-01-04T04:11:40.190Z,926.1
2018-01-04T04:12:43.550Z,926
2018-01-04T04:13:46.855Z,926
2018-01-04T04:14:50.785Z,926
2018-01-04T04:15:54.108Z,926.1
2018-01-04T04:17:02.435Z,926.1
2018-01-04T04:18:05.700Z,926.1
2018-01-04T04:19:08.915Z,926.1
2018-01-04T04:20:12.316Z,926
2018-01-04T04:21:17.531Z,926
2018-01-04T04:22:20.939Z,926.1
2018-01-04T04:23:24.434Z,926
2018-01-04T04:24:28.294Z,926
2018-01-04T04:25:41.610Z,926
2018-01-04T04:26:45.741Z,925.9
2018-01-04T04:27:52.623Z,925.9
2018-01-04T04:28:55.883Z,925.9
2018-01-04T04:29:59.392Z,925.9
2018-01-04T04:31:02.692Z,925.9
2018-01-04T04:32:06.020Z,925.8
2018-01-04T04:33:09.494Z,925.9
2018-01-04T04:34:12.948Z,925.9
2018-01-04T04:35:16.162Z,925.8
2018-01-04T04:36:20.904Z,925.7
2018-01-04T04:37:25.960Z,925.8
2018-01-04T04:38:33.947Z,925.8
2018-01-04T04:39:37.878Z,925.8
2018-01-04T04:40:42.059Z,925.7
2018-01-04T04:41:45.515Z,925.7
2018-01-04T04:42:48.815Z,925.6
2018-01-04T04:43:52.735Z,925.7
2018-01-04T04:44:57.410Z,925.7
2018-01-04T04:46:01.463Z,925.6
2018-01-04T04:47:04.784Z,925.6
2018-01-04T04:48:08.211Z,925.7
2018-01-04T04:49:29.803Z,925.7
2018-01-04T04:50:38.771Z,925.6
2018-01-04T04:51:53.331Z,925.5
2018-01-04T04:52:58.293Z,925.5
2018-01-04T04:54:02.225Z,925.4
2018-01-04T04:55:05.508Z,925.5
2018-01-04T04:56:08.950Z,925.4
2018-01-04T04:57:12.247Z,925.4
2018-01-04T04:58:15.481Z,925.3
2018-01-04T04:59:20.340Z,925.4
2018-01-04T05:00:32.687Z,925.4
2018-01-04T05:01:36.771Z,921.3
2018-01-04T05:02:41.440Z,925.3
2018-01-04T05:03:46.207Z,925.3
2018-01-04T05:04:50.283Z,925.3
2018-01-04T05:05:55.751Z,925.3
2018-01-04T05:06:59.813Z,925.3
2018-01-04T05:08:03.798Z,925.3
2018-01-04T05:09:08.378Z,925.3
2018-01-04T05:10:13.180Z,925.3
2018-01-04T05:11:20.494Z,925.3
2018-01-04T05:12:24.859Z,925.3
2018-01-04T05:13:28.187Z,925.2
2018-01-04T05:14:31.516Z,925.2
2018-01-04T05:15:34.901Z,925.1
2018-01-04T05:16:38.125Z,925.1
2018-01-04T05:17:42.384Z,925.1
2018-01-04T05:18:48.768Z,925.3
2018-01-04T05:19:53.995Z,925.2
2018-01-04T05:20:58.938Z,921.1
2018-01-04T05:22:06.409Z,925.1
2018-01-04T05:23:13.453Z,925.2
2018-01-04T05:24:18.193Z,925.2
2018-01-04T05:25:22.750Z,925.2
2018-01-04T05:26:26.083Z,925.2
2018-01-04T05:27:29.976Z,925.1
2018-01-04T05:28:33.358Z,925.2
2018-01-04T05:29:36.711Z,925.1
2018-01-04T05:30:40.081Z,925.1
2018-01-04T05:31:44.057Z,925.2
2018-01-04T05:32:52.538Z,925.2
2018-01-04T05:33:55.814Z,925.3
2018-01-04T05:34:59.730Z,925.2
2018-01-04T05:36:02.966Z,925.3
2018-01-04T05:37:06.828Z,925.3
2018-01-04T05:38:10.713Z,925.3
2018-01-04T05:39:19.560Z,925.3
2018-01-04T05:42:54.139Z,925.3
2018-01-04T05:44:02.453Z,925.3
2018-01-04T05:45:06.309Z,925.2
2018-01-04T05:46:11.053Z,925.2
2018-01-04T05:47:14.698Z,925.1
2018-01-04T05:48:17.869Z,925.2
2018-01-04T05:49:22.446Z,925.3
2018-01-04T05:50:25.855Z,925.2
2018-01-04T05:51:29.677Z,925.2
2018-01-04T05:52:34.326Z,925.2
2018-01-04T05:53:38.563Z,925.2
2018-01-04T05:54:46.808Z,925.2
2018-01-04T05:55:50.159Z,925.3
2018-01-04T05:56:55.424Z,925.2
2018-01-04T05:57:58.702Z,925.3
2018-01-04T05:59:02.622Z,925.3
2018-01-04T06:00:05.859Z,925.3
2018-01-04T06:01:10.171Z,925.3
2018-01-04T06:02:16.370Z,925.3
2018-01-04T06:03:20.360Z,925.3
2018-01-04T06:04:24.280Z,925.3
2018-01-04T06:05:31.912Z,925.2
2018-01-04T06:06:35.295Z,925.3
2018-01-04T06:07:40.197Z,925.2
2018-01-04T06:08:44.275Z,925.3
2018-01-04T06:09:48.418Z,925.1
2018-01-04T06:10:52.250Z,925.2
2018-01-04T06:11:57.158Z,925.2
2018-01-04T06:13:02.138Z,925.3
2018-01-04T06:14:09.129Z,925.3
2018-01-04T06:15:14.279Z,925.3
2018-01-04T06:16:22.297Z,925.2
2018-01-04T06:17:26.760Z,925.1
2018-01-04T06:18:32.108Z,925.1
2018-01-04T06:19:36.918Z,925.1
2018-01-04T06:20:42.107Z,925
2018-01-04T06:21:46.336Z,925.2
2018-01-04T06:22:50.355Z,925.1
2018-01-04T06:23:56.603Z,925.1
2018-01-04T06:25:00.524Z,925.1
2018-01-04T06:26:03.997Z,925.1
2018-01-04T06:27:11.060Z,925
2018-01-04T06:28:14.490Z,925
2018-01-04T06:29:17.817Z,925.1
2018-01-04T06:30:27.347Z,925.1
2018-01-04T06:31:30.931Z,925.2
2018-01-04T06:32:45.476Z,925.1
2018-01-04T06:33:48.796Z,925
2018-01-04T06:34:52.731Z,924.3
2018-01-04T06:35:56.199Z,925.1
2018-01-04T06:36:59.661Z,925.1
2018-01-04T06:39:26.783Z,924.9
2018-01-04T06:40:35.763Z,924.9
2018-01-04T06:41:39.142Z,925
2018-01-04T06:42:42.630Z,924.9
2018-01-04T06:43:46.129Z,924.9
2018-01-04T06:44:51.442Z,924.8
2018-01-04T06:46:00.430Z,924.9
2018-01-04T06:47:03.827Z,924.9
2018-01-04T06:48:07.184Z,924.9
2018-01-04T06:49:15.201Z,925
2018-01-04T06:50:18.668Z,924.9
2018-01-04T06:51:22.073Z,925
2018-01-04T06:52:25.528Z,924.9
2018-01-04T06:53:28.842Z,925
2018-01-04T06:54:32.425Z,925
2018-01-04T06:55:36.404Z,925
2018-01-04T06:56:40.417Z,925
2018-01-04T06:57:43.860Z,924.9
2018-01-04T06:58:47.920Z,925
2018-01-04T06:59:55.366Z,924.9
2018-01-04T07:00:58.815Z,924.8
2018-01-04T07:02:02.268Z,924.9
2018-01-04T07:03:06.446Z,924.8
2018-01-04T07:04:11.987Z,924.8
2018-01-04T07:05:15.896Z,924.8
2018-01-04T07:06:21.701Z,924.8
2018-01-04T07:07:26.358Z,924.8
2018-01-04T07:08:29.685Z,924.7
2018-01-04T07:09:33.972Z,924.7
2018-01-04T07:10:41.279Z,924.7
2018-01-04T07:11:44.711Z,924.8
2018-01-04T07:12:48.879Z,924.8
2018-01-04T07:13:52.339Z,924.7
2018-01-04T07:14:55.655Z,924.7
2018-01-04T07:16:01.182Z,924.6
2018-01-04T07:17:06.872Z,924.7
2018-01-04T07:18:10.906Z,924.8
2018-01-04T07:19:15.418Z,924.7
2018-01-04T07:20:20.702Z,924.8
2018-01-04T07:21:29.865Z,924.8
2018-01-04T07:22:34.109Z,924.8
2018-01-04T07:23:39.039Z,920.6
2018-01-04T07:24:43.136Z,924.8
2018-01-04T07:25:48.502Z,924.7
2018-01-04T07:26:53.161Z,924.7
2018-01-04T07:27:58.731Z,924.7
2018-01-04T07:29:03.970Z,924.8
2018-01-04T07:30:09.085Z,924.7
2018-01-04T07:31:14.158Z,924.7
2018-01-04T07:32:23.951Z,924.7
2018-01-04T07:33:30.182Z,924.7
2018-01-04T07:34:35.281Z,924.7
2018-01-04T07:35:40.309Z,924.7
2018-01-04T07:36:45.137Z,924.7
2018-01-04T07:37:49.861Z,924.7
2018-01-04T07:38:53.881Z,924.7
2018-01-04T07:39:57.377Z,924.8
2018-01-04T07:41:03.005Z,924.7
2018-01-04T07:42:09.444Z,924.3
2018-01-04T07:43:18.643Z,924.6
2018-01-04T07:44:23.347Z,924.7
2018-01-04T07:45:28.834Z,924.6
2018-01-04T07:46:33.688Z,924.7
2018-01-04T07:47:38.300Z,924.5
2018-01-04T07:48:42.256Z,924.8
2018-01-04T07:49:49.170Z,924.7
2018-01-04T07:50:53.164Z,924.7
2018-01-04T07:51:57.977Z,924.3
2018-01-04T07:53:03.887Z,924
2018-01-04T07:54:13.690Z,924.7
2018-01-04T07:55:19.279Z,924.7
2018-01-04T07:56:22.695Z,924.7
2018-01-04T07:57:29.372Z,924.6
2018-01-04T07:58:33.207Z,924.6
2018-01-04T07:59:37.949Z,924.7
2018-01-04T08:00:42.791Z,924.6
2018-01-04T08:01:47.560Z,924.6
2018-01-04T08:02:52.190Z,923.7
2018-01-04T08:03:56.783Z,924.6
2018-01-04T08:05:03.533Z,924.6
2018-01-04T08:06:10.368Z,924.5
2018-01-04T08:07:15.151Z,924.5
2018-01-04T08:08:19.138Z,924.5
2018-01-04T08:09:23.762Z,924.5
2018-01-04T08:10:28.865Z,924.5
2018-01-04T08:11:33.855Z,924.4
2018-01-04T08:12:38.512Z,924.5
2018-01-04T08:13:44.348Z,924.5
2018-01-04T08:14:48.965Z,924.4
2018-01-04T08:15:58.787Z,924.4
2018-01-04T08:17:03.300Z,924.5
2018-01-04T08:18:07.905Z,924.6
2018-01-04T08:19:13.113Z,924.5
2018-01-04T08:20:19.291Z,924.5
2018-01-04T08:21:22.669Z,924.7
2018-01-04T08:22:29.955Z,924.7
2018-01-04T08:23:33.349Z,924.6
2018-01-04T08:24:38.764Z,924.6
2018-01-04T08:25:43.688Z,924.6
2018-01-04T08:26:52.546Z,924.5
2018-01-04T08:27:58.697Z,920.3
2018-01-04T08:29:03.356Z,924.6
2018-01-04T08:30:09.019Z,923.6
2018-01-04T08:31:14.379Z,924.5
2018-01-04T08:32:19.145Z,924.6
2018-01-04T08:33:24.140Z,924.5
2018-01-04T08:34:29.389Z,924.4
2018-01-04T08:35:34.320Z,924.5
2018-01-04T08:36:39.763Z,924.4
2018-01-04T08:37:50.078Z,924.5
2018-01-04T08:38:56.151Z,924.5
2018-01-04T08:40:00.840Z,924.5
2018-01-04T08:41:05.274Z,920.1
2018-01-04T08:42:10.183Z,924.6
2018-01-04T08:43:14.368Z,924.5
2018-01-04T08:44:20.210Z,924.5
2018-01-04T08:45:26.161Z,924.5
2018-01-04T08:46:30.838Z,924.6
2018-01-04T08:47:35.787Z,924.7
2018-01-04T08:48:46.490Z,924.7
2018-01-04T08:49:51.203Z,924.7
2018-01-04T08:50:56.492Z,924.7
2018-01-04T08:52:01.708Z,920.8
2018-01-04T08:53:06.657Z,924.7
2018-01-04T08:54:12.429Z,924.6
2018-01-04T08:55:18.525Z,924.7
2018-01-04T08:56:24.063Z,924.6
2018-01-04T08:57:27.370Z,924.6
2018-01-04T08:58:30.845Z,924.6
2018-01-04T08:59:38.283Z,924.7
2018-01-04T09:00:43.382Z,924.7
2018-01-04T09:01:47.248Z,924.7
2018-01-04T09:02:50.783Z,924.8
2018-01-04T09:03:54.269Z,924.5
2018-01-04T09:04:57.763Z,924.5
2018-01-04T09:06:01.255Z,924.5
2018-01-04T09:07:04.660Z,924.5
2018-01-04T09:08:08.086Z,924.4
2018-01-04T09:09:11.462Z,924.3
2018-01-04T09:10:18.213Z,924.4
2018-01-04T09:11:21.749Z,924.4
2018-01-04T09:12:25.169Z,924.4
2018-01-04T09:13:28.567Z,924.3
2018-01-04T09:14:32.335Z,924.3
2018-01-04T09:15:35.782Z,924.2
2018-01-04T09:16:39.237Z,924.3
2018-01-04T09:17:43.981Z,924.3
2018-01-04T09:18:47.418Z,924.3
2018-01-04T09:19:50.839Z,924.3
2018-01-04T09:20:58.420Z,924.3
2018-01-04T09:22:01.856Z,924.4
2018-01-04T09:23:05.874Z,924.3
2018-01-04T09:24:09.425Z,924.2
2018-01-04T09:25:13.768Z,924.2
2018-01-04T09:26:17.357Z,924.2
2018-01-04T09:27:21.007Z,924.2
2018-01-04T09:28:24.571Z,924.2
2018-01-04T09:29:28.068Z,924.2
2018-01-04T09:30:31.376Z,924.3
2018-01-04T09:31:40.202Z,924.3
2018-01-04T09:32:44.789Z,924.2
2018-01-04T09:33:48.205Z,924.3
2018-01-04T09:34:51.610Z,924.3
2018-01-04T09:35:55.557Z,924.3
2018-01-04T09:36:59.971Z,924.3
2018-01-04T09:38:04.136Z,924.3
2018-01-04T09:39:07.701Z,924.4
2018-01-04T09:40:11.592Z,924.3
2018-01-04T09:41:16.469Z,924.3
2018-01-04T09:42:25.616Z,924.2
2018-01-04T09:43:29.209Z,924.3
2018-01-04T09:44:33.257Z,924.4
2018-01-04T09:45:38.416Z,924.4
2018-01-04T09:46:43.185Z,924.3
2018-01-04T09:47:47.823Z,924.3
2018-01-04T09:48:53.917Z,924.4
2018-01-04T09:49:58.118Z,924.3
2018-01-04T09:51:02.329Z,924.3
2018-01-04T09:52:06.385Z,924.4
2018-01-04T09:53:16.551Z,924.5
2018-01-04T09:54:21.896Z,924.5
2018-01-04T09:55:25.773Z,924.4
2018-01-04T09:56:30.734Z,924.4
2018-01-04T09:57:34.770Z,924.3
2018-01-04T09:58:41.120Z,924.3
2018-01-04T09:59:47.666Z,924.5
2018-01-04T10:00:53.949Z,924.4
2018-01-04T10:02:01.031Z,924.4
2018-01-04T10:03:08.322Z,924.4
2018-01-04T10:04:18.443Z,924.3
2018-01-04T10:05:25.953Z,924.3
2018-01-04T10:06:32.946Z,924.3
2018-01-04T10:07:37.678Z,924.2
2018-01-04T10:08:43.599Z,924.2
2018-01-04T10:09:50.398Z,924.2
2018-01-04T10:10:54.518Z,924.2
2018-01-04T10:11:59.795Z,924.2
2018-01-04T10:13:04.787Z,924.1
2018-01-04T10:14:09.030Z,924.1
2018-01-04T10:15:15.880Z,924.1
2018-01-04T10:16:21.215Z,924.2
2018-01-04T10:17:25.929Z,924.1
2018-01-04T10:18:29.509Z,924.2
2018-01-04T10:19:32.994Z,924
2018-01-04T10:20:37.080Z,924.1
2018-01-04T10:21:41.778Z,924.1
2018-01-04T10:22:46.902Z,924.1
2018-01-04T10:23:51.465Z,920
2018-01-04T10:24:55.116Z,924.2
2018-01-04T10:26:03.213Z,924.1
2018-01-04T10:27:07.426Z,924
2018-01-04T10:28:10.980Z,924
2018-01-04T10:29:15.692Z,924.1
2018-01-04T10:30:19.769Z,924
2018-01-04T10:31:23.763Z,924
2018-01-04T10:32:29.231Z,924
2018-01-04T10:33:33.241Z,924
2018-01-04T10:34:37.588Z,924.1
2018-01-04T10:35:41.542Z,924
2018-01-04T10:36:51.443Z,924
2018-01-04T10:37:55.332Z,923.9
2018-01-04T10:39:00.243Z,924
2018-01-04T10:40:06.954Z,923.9
2018-01-04T10:41:11.053Z,923.9
2018-01-04T10:42:15.179Z,923.9
2018-01-04T10:43:19.788Z,923.8
2018-01-04T10:44:25.134Z,923.8
2018-01-04T10:45:29.244Z,923.7
2018-01-04T10:46:33.294Z,923.7
2018-01-04T10:47:41.557Z,923.8
2018-01-04T10:48:44.948Z,923.8
2018-01-04T10:49:48.961Z,923.6
2018-01-04T10:50:53.030Z,923.7
2018-01-04T10:51:56.291Z,923.7
2018-01-04T10:53:01.138Z,923.7
2018-01-04T10:54:04.641Z,923.6
2018-01-04T10:55:08.006Z,923.6
2018-01-04T10:56:12.194Z,923.6
2018-01-04T10:57:17.723Z,923.6
2018-01-04T10:58:23.740Z,923.7
2018-01-04T10:59:28.956Z,923.6
2018-01-04T11:00:32.920Z,923.5
2018-01-04T11:01:36.400Z,923.5
2018-01-04T11:02:40.544Z,923.5
2018-01-04T11:03:45.232Z,923.5
2018-01-04T11:04:49.651Z,923.5
2018-01-04T11:05:54.882Z,923.4
2018-01-04T11:06:58.360Z,923.5
2018-01-04T11:08:01.928Z,923.4
2018-01-04T11:09:09.479Z,923.4
2018-01-04T11:10:13.307Z,923.4
2018-01-04T11:11:18.284Z,923.4
2018-01-04T11:12:23.899Z,923.2
2018-01-04T11:13:27.407Z,923.3
2018-01-04T11:14:32.054Z,923.3
2018-01-04T11:15:37.169Z,923.2
2018-01-04T11:16:40.651Z,923.2
2018-01-04T11:17:45.017Z,923.1
2018-01-04T11:18:49.284Z,923.1
2018-01-04T11:19:58.140Z,923.1
2018-01-04T11:21:02.264Z,923.1
2018-01-04T11:22:05.704Z,923.1
2018-01-04T11:23:10.920Z,923
2018-01-04T11:24:16.090Z,923
2018-01-04T11:25:24.814Z,923
2018-01-04T11:26:29.017Z,923
2018-01-04T11:27:33.317Z,923
2018-01-04T11:28:36.730Z,923
2018-01-04T11:29:40.152Z,922.9
2018-01-04T11:30:46.839Z,923
2018-01-04T11:31:50.370Z,923
2018-01-04T11:32:53.809Z,922.8
2018-01-04T11:33:57.195Z,922.9
2018-01-04T11:35:00.783Z,922.7
2018-01-04T11:36:04.152Z,922.7
2018-01-04T11:37:07.502Z,922.7
2018-01-04T11:38:10.952Z,922.7
2018-01-04T11:39:14.237Z,922.7
2018-01-04T11:40:17.619Z,922.5
2018-01-04T11:41:24.506Z,922.4
2018-01-04T11:42:28.041Z,922.4
2018-01-04T11:43:31.483Z,922.4
2018-01-04T11:44:34.907Z,922.3
2018-01-04T11:45:38.392Z,922.3
2018-01-04T11:46:42.026Z,922.2
2018-01-04T11:47:45.589Z,922.3
2018-01-04T11:48:49.314Z,922.2
2018-01-04T11:49:52.756Z,922.2
2018-01-04T11:50:56.280Z,922.2
2018-01-04T11:52:03.266Z,922.2
2018-01-04T11:53:06.718Z,922.1
2018-01-04T11:54:10.116Z,922
2018-01-04T11:55:13.621Z,922
2018-01-04T11:56:17.107Z,922.1
2018-01-04T11:57:20.470Z,922.1
2018-01-04T11:58:24.133Z,921.9
2018-01-04T11:59:27.624Z,921.9
2018-01-04T12:00:31.236Z,921.8
2018-01-04T12:01:34.626Z,921.8
2018-01-04T12:02:40.636Z,921.7
2018-01-04T12:03:44.852Z,921.8
2018-01-04T12:04:49.762Z,921.7
2018-01-04T12:05:53.880Z,921.7
2018-01-04T12:06:57.238Z,921.6
2018-01-04T12:08:01.351Z,921.5
2018-01-04T12:09:04.820Z,920.8
2018-01-04T12:10:08.375Z,921.5
2018-01-04T12:11:13.330Z,921.5
2018-01-04T12:12:18.070Z,921.4
2018-01-04T12:13:25.531Z,921.4
2018-01-04T12:14:28.955Z,921.3
2018-01-04T12:15:32.256Z,921.3
2018-01-04T12:16:35.792Z,921.3
2018-01-04T12:17:39.522Z,921.3
2018-01-04T12:18:46.048Z,921.2
2018-01-04T12:19:50.475Z,921.2
2018-01-04T12:20:54.632Z,921.2
2018-01-04T12:21:58.167Z,921.1
2018-01-04T12:23:01.448Z,921.1
2018-01-04T12:24:08.295Z,921.1
2018-01-04T12:25:12.601Z,921.1
2018-01-04T12:26:16.671Z,921.1
2018-01-04T12:27:20.551Z,921
2018-01-04T12:28:23.925Z,920.9
2018-01-04T12:29:27.348Z,921
2018-01-04T12:30:32.114Z,920.9
2018-01-04T12:31:37.203Z,920.9
2018-01-04T12:32:41.252Z,920.9
2018-01-04T12:33:44.722Z,920.9
2018-01-04T12:34:56.166Z,921
2018-01-04T12:36:01.004Z,920.9
2018-01-04T12:37:04.432Z,920.8
2018-01-04T12:38:08.659Z,920.7
2018-01-04T12:39:14.967Z,920.8
2018-01-04T12:40:18.886Z,920.8
2018-01-04T12:41:23.735Z,920.7
2018-01-04T12:42:27.364Z,920.8
2018-01-04T12:43:31.461Z,920.8
2018-01-04T12:44:35.891Z,920.7
2018-01-04T12:45:47.259Z,920.7
2018-01-04T12:46:51.492Z,920.8
2018-01-04T12:47:55.827Z,920.8
2018-01-04T12:48:59.512Z,920.5
2018-01-04T12:50:04.790Z,920.7
2018-01-04T12:51:08.594Z,920.7
2018-01-04T12:52:12.477Z,920.8
2018-01-04T12:53:17.344Z,920.7
2018-01-04T12:54:20.731Z,920.6
2018-01-04T12:55:26.434Z,920.6
2018-01-04T12:56:35.458Z,920.7
2018-01-04T12:57:39.733Z,920.6
2018-01-04T12:58:44.544Z,920.7
2018-01-04T12:59:49.522Z,920.7
2018-01-04T13:00:53.127Z,920.6
2018-01-04T13:01:57.122Z,920.6
2018-01-04T13:03:02.018Z,920.6
2018-01-04T13:04:05.423Z,920.6
2018-01-04T13:05:08.704Z,920.6
2018-01-04T13:06:12.935Z,920.6
2018-01-04T13:07:20.008Z,920.6
2018-01-04T13:08:23.422Z,920.6
2018-01-04T13:09:26.752Z,920.5
2018-01-04T13:10:30.748Z,920.5
2018-01-04T13:11:35.233Z,920.5
2018-01-04T13:12:38.681Z,920.4
2018-01-04T13:13:41.978Z,920.4
2018-01-04T13:14:46.066Z,920.5
2018-01-04T13:15:49.543Z,920.5
2018-01-04T13:16:53.792Z,920.4
2018-01-04T13:18:01.521Z,920.4
2018-01-04T13:19:05.036Z,920.5
2018-01-04T13:20:08.405Z,920.6
2018-01-04T13:21:12.330Z,920.2
2018-01-04T13:22:16.864Z,920.3
2018-01-04T13:23:20.238Z,920.5
2018-01-04T13:24:23.797Z,920.4
2018-01-04T13:25:28.585Z,919.5
2018-01-04T13:26:32.518Z,920.2
2018-01-04T13:27:36.638Z,920.4
2018-01-04T13:28:44.559Z,920.5
2018-01-04T13:29:47.947Z,920.4
2018-01-04T13:30:51.242Z,920.3
2018-01-04T13:31:54.687Z,920.3
2018-01-04T13:32:58.871Z,920.2
2018-01-04T13:34:02.331Z,920.1
2018-01-04T13:35:05.811Z,920.2
2018-01-04T13:36:09.273Z,920.2
2018-01-04T13:37:12.808Z,920.3
2018-01-04T13:38:16.159Z,920.2
2018-01-04T13:39:23.270Z,920.2
2018-01-04T13:40:26.485Z,920.2
2018-01-04T13:41:29.803Z,920.2
2018-01-04T13:42:33.138Z,920.4
2018-01-04T13:43:36.468Z,920.3
2018-01-04T13:44:39.889Z,920.2
2018-01-04T13:45:43.356Z,920.2
2018-01-04T13:46:46.803Z,915.8
2018-01-04T13:47:50.305Z,920.2
2018-01-04T13:48:53.701Z,920.1
2018-01-04T13:50:00.633Z,920.2
2018-01-04T13:51:03.808Z,920.3
2018-01-04T13:52:07.151Z,920.4
2018-01-04T13:53:19.240Z,920.3
2018-01-04T13:54:24.102Z,920.2
2018-01-04T13:55:28.632Z,916.3
2018-01-04T13:56:32.725Z,920.2
2018-01-04T13:57:36.142Z,920.1
2018-01-04T13:58:39.626Z,920.3
2018-01-04T13:59:44.286Z,920.2
2018-01-04T14:00:52.045Z,920.2
2018-01-04T14:01:55.473Z,920.1
2018-01-04T14:02:58.951Z,920.3
2018-01-04T14:04:02.312Z,920.3